createdAt,value
2017-09-27T00:00:58.241Z,84.01
2017-09-27T00:01:58.262Z,83.92
2017-09-27T00:02:58.280Z,84.59
2017-09-27T00:03:58.304Z,85.16
2017-09-27T00:04:58.333Z,85.25
2017-09-27T00:05:58.341Z,84.78
2017-09-27T00:06:58.352Z,84.92
2017-09-27T00:07:58.373Z,85.78
2017-09-27T00:08:58.390Z,85.35
2017-09-27T00:09:58.408Z,85.02
2017-09-27T00:10:58.427Z,85.78
2017-09-27T00:11:58.446Z,85.88
2017-09-27T00:12:58.467Z,85.69
2017-09-27T00:13:58.482Z,85.69
2017-09-27T00:14:58.503Z,85.50
2017-09-27T00:15:58.519Z,85.50
2017-09-27T00:16:58.539Z,85.41
2017-09-27T00:17:58.558Z,85.02
2017-09-27T00:18:58.575Z,85.21
2017-09-27T00:19:58.593Z,84.83
2017-09-27T00:20:58.614Z,84.36
2017-09-27T00:21:58.634Z,84.74
2017-09-27T00:22:58.650Z,85.02
2017-09-27T00:23:58.666Z,85.50
2017-09-27T00:24:58.683Z,85.21
2017-09-27T00:25:58.704Z,85.60
2017-09-27T00:26:58.725Z,85.02
2017-09-27T00:27:58.743Z,84.74
2017-09-27T00:28:58.761Z,84.55
2017-09-27T00:29:58.780Z,83.92
2017-09-27T00:30:58.796Z,84.11
2017-09-27T00:31:58.815Z,84.20
2017-09-27T00:32:58.832Z,83.54
2017-09-27T00:33:58.850Z,83.35
2017-09-27T00:34:58.869Z,84.01
2017-09-27T00:35:58.888Z,84.11
2017-09-27T00:36:58.909Z,84.30
2017-09-27T00:37:58.925Z,84.30
2017-09-27T00:38:58.945Z,84.69
2017-09-27T00:39:58.964Z,84.49
2017-09-27T00:40:58.981Z,84.20
2017-09-27T00:41:59.001Z,84.11
2017-09-27T00:42:59.019Z,83.73
2017-09-27T00:43:59.047Z,84.11
2017-09-27T00:44:59.055Z,84.20
2017-09-27T00:45:59.079Z,84.30
2017-09-27T00:46:59.092Z,84.11
2017-09-27T00:47:59.118Z,84.30
2017-09-27T00:48:59.133Z,83.64
2017-09-27T00:49:59.148Z,83.25
2017-09-27T00:50:59.166Z,83.64
2017-09-27T00:51:59.182Z,84.20
2017-09-27T00:52:59.206Z,84.11
2017-09-27T00:53:59.224Z,84.78
2017-09-27T00:54:59.240Z,85.25
2017-09-27T00:55:59.260Z,84.97
2017-09-27T00:56:59.280Z,84.69
2017-09-27T00:57:59.296Z,85.01
2017-09-27T00:58:59.315Z,84.40
2017-09-27T00:59:59.333Z,84.63
2017-09-27T01:00:59.356Z,84.82
2017-09-27T01:01:59.373Z,84.25
2017-09-27T01:02:59.389Z,84.11
2017-09-27T01:03:59.408Z,84.06
2017-09-27T01:04:59.426Z,83.77
2017-09-27T01:05:59.448Z,83.58
2017-09-27T01:06:59.465Z,84.20
2017-09-27T01:07:59.484Z,85.25
2017-09-27T01:08:59.501Z,85.11
2017-09-27T01:09:59.523Z,84.72
2017-09-27T01:10:59.539Z,84.53
2017-09-27T01:11:59.558Z,84.72
2017-09-27T01:12:59.581Z,85.49
2017-09-27T01:13:59.599Z,85.21
2017-09-27T01:14:59.615Z,84.63
2017-09-27T01:15:59.632Z,85.68
2017-09-27T01:16:59.652Z,85.11
2017-09-27T01:17:59.679Z,85.21
2017-09-27T01:18:59.690Z,85.68
2017-09-27T01:19:59.709Z,86.25
2017-09-27T01:20:59.727Z,87.26
2017-09-27T01:21:59.746Z,87.64
2017-09-27T01:22:59.766Z,88.50
2017-09-27T01:23:59.784Z,88.12
2017-09-27T01:24:59.802Z,88.88
2017-09-27T01:25:59.824Z,88.78
2017-09-27T01:26:59.838Z,88.88
2017-09-27T01:27:59.864Z,88.59
2017-09-27T01:28:59.878Z,88.50
2017-09-27T01:29:59.897Z,88.16
2017-09-27T01:30:59.918Z,87.49
2017-09-27T01:31:59.938Z,87.68
2017-09-27T01:32:59.959Z,87.21
2017-09-27T01:33:59.974Z,86.63
2017-09-27T01:34:59.992Z,87.68
2017-09-27T01:36:00.009Z,86.82
2017-09-27T01:37:00.029Z,86.44
2017-09-27T01:38:00.048Z,85.87
2017-09-27T01:39:00.073Z,85.77
2017-09-27T01:40:00.085Z,85.68
2017-09-27T01:41:00.104Z,85.87
2017-09-27T01:42:00.126Z,86.06
2017-09-27T01:43:00.142Z,86.82
2017-09-27T01:44:00.163Z,87.68
2017-09-27T01:45:00.193Z,88.21
2017-09-27T01:46:00.199Z,88.69
2017-09-27T01:47:00.218Z,88.40
2017-09-27T01:48:00.236Z,88.50
2017-09-27T01:49:00.256Z,88.98
2017-09-27T01:50:00.279Z,88.50
2017-09-27T01:51:00.294Z,88.26
2017-09-27T01:52:00.312Z,88.26
2017-09-27T01:53:00.332Z,87.68
2017-09-27T01:54:00.354Z,87.49
2017-09-27T01:55:00.368Z,87.49
2017-09-27T01:56:00.392Z,86.44
2017-09-27T01:57:00.409Z,86.16
2017-09-27T01:58:00.426Z,86.73
2017-09-27T01:59:00.445Z,86.54
2017-09-27T02:00:00.463Z,87.11
2017-09-27T02:01:00.481Z,87.11
2017-09-27T02:02:00.500Z,87.49
2017-09-27T02:03:00.547Z,87.68
2017-09-27T02:04:00.536Z,88.35
2017-09-27T02:05:00.554Z,88.26
2017-09-27T02:06:00.574Z,88.54
2017-09-27T02:07:00.595Z,88.16
2017-09-27T02:08:00.613Z,87.49
2017-09-27T02:09:00.633Z,87.30
2017-09-27T02:10:00.651Z,87.30
2017-09-27T02:11:00.671Z,87.97
2017-09-27T02:12:00.688Z,88.92
2017-09-27T02:13:00.707Z,89.17
2017-09-27T02:14:00.727Z,89.36
2017-09-27T02:15:00.744Z,89.50
2017-09-27T02:16:00.763Z,89.54
2017-09-27T02:17:00.784Z,89.36
2017-09-27T02:18:00.803Z,89.83
2017-09-27T02:19:00.819Z,90.22
2017-09-27T02:20:00.843Z,91.13
2017-09-27T02:21:00.859Z,90.69
2017-09-27T02:22:00.877Z,89.93
2017-09-27T02:23:00.895Z,88.98
2017-09-27T02:24:00.914Z,88.92
2017-09-27T02:25:00.931Z,87.87
2017-09-27T02:26:00.953Z,87.30
2017-09-27T02:27:00.971Z,87.40
2017-09-27T02:28:00.988Z,87.40
2017-09-27T02:29:01.013Z,87.40
2017-09-27T02:30:01.029Z,87.68
2017-09-27T02:31:01.048Z,87.40
2017-09-27T02:32:01.066Z,87.59
2017-09-27T02:33:01.082Z,88.26
2017-09-27T02:34:01.103Z,88.35
2017-09-27T02:35:01.123Z,88.50
2017-09-27T02:36:01.138Z,88.78
2017-09-27T02:37:01.169Z,88.54
2017-09-27T02:38:01.180Z,88.35
2017-09-27T02:39:01.196Z,87.49
2017-09-27T02:40:01.213Z,87.68
2017-09-27T02:41:01.235Z,88.40
2017-09-27T02:42:01.253Z,88.69
2017-09-27T02:43:01.269Z,89.26
2017-09-27T02:44:01.289Z,88.78
2017-09-27T02:45:01.308Z,88.73
2017-09-27T02:46:01.335Z,88.59
2017-09-27T02:47:02.260Z,88.88
2017-09-27T02:48:01.369Z,88.98
2017-09-27T02:49:01.384Z,89.17
2017-09-27T02:50:01.403Z,88.45
2017-09-27T02:51:01.425Z,87.40
2017-09-27T02:52:01.440Z,86.92
2017-09-27T02:53:01.458Z,86.92
2017-09-27T02:54:01.476Z,87.49
2017-09-27T02:55:01.499Z,87.49
2017-09-27T02:56:01.515Z,86.82
2017-09-27T02:57:01.534Z,86.25
2017-09-27T02:58:01.554Z,85.63
2017-09-27T02:59:01.570Z,85.82
2017-09-27T03:00:01.591Z,85.53
2017-09-27T03:01:01.611Z,85.72
2017-09-27T03:02:01.630Z,85.82
2017-09-27T03:03:01.644Z,85.91
2017-09-27T03:04:01.667Z,86.01
2017-09-27T03:05:01.685Z,85.77
2017-09-27T03:06:01.704Z,86.73
2017-09-27T03:07:01.722Z,86.06
2017-09-27T03:08:01.744Z,87.02
2017-09-27T03:09:01.763Z,87.40
2017-09-27T03:10:01.780Z,87.74
2017-09-27T03:11:01.803Z,88.98
2017-09-27T03:12:01.816Z,89.54
2017-09-27T03:13:01.837Z,89.26
2017-09-27T03:14:01.861Z,88.69
2017-09-27T03:15:01.880Z,88.21
2017-09-27T03:16:01.895Z,88.26
2017-09-27T03:17:01.910Z,88.26
2017-09-27T03:18:01.935Z,88.64
2017-09-27T03:19:01.947Z,88.16
2017-09-27T03:20:01.965Z,87.78
2017-09-27T03:21:01.987Z,88.45
2017-09-27T03:22:02.004Z,88.54
2017-09-27T03:23:02.022Z,88.35
2017-09-27T03:24:02.041Z,87.78
2017-09-27T03:25:02.071Z,87.68
2017-09-27T03:26:02.079Z,87.40
2017-09-27T03:27:02.097Z,87.68
2017-09-27T03:28:02.116Z,87.78
2017-09-27T03:29:02.136Z,87.49
2017-09-27T03:30:02.155Z,87.87
2017-09-27T03:31:02.172Z,87.87
2017-09-27T03:32:02.192Z,88.35
2017-09-27T03:33:02.216Z,88.73
2017-09-27T03:34:02.229Z,88.69
2017-09-27T03:35:02.248Z,88.98
2017-09-27T03:36:02.267Z,88.69
2017-09-27T03:37:02.288Z,88.88
2017-09-27T03:38:02.306Z,88.88
2017-09-27T03:39:02.330Z,89.64
2017-09-27T03:40:02.343Z,88.88
2017-09-27T03:41:02.363Z,88.50
2017-09-27T03:42:02.379Z,89.64
2017-09-27T03:43:02.399Z,90.41
2017-09-27T03:44:02.418Z,90.03
2017-09-27T03:45:02.437Z,89.21
2017-09-27T03:46:02.457Z,88.35
2017-09-27T03:47:02.475Z,88.21
2017-09-27T03:48:02.490Z,89.26
2017-09-27T03:49:02.512Z,88.88
2017-09-27T03:50:02.529Z,88.88
2017-09-27T03:51:02.549Z,88.98
2017-09-27T03:52:02.569Z,88.78
2017-09-27T03:53:02.587Z,89.36
2017-09-27T03:54:02.605Z,88.78
2017-09-27T03:55:02.624Z,88.35
2017-09-27T03:56:02.641Z,88.73
2017-09-27T03:57:02.663Z,88.59
2017-09-27T03:58:02.681Z,88.12
2017-09-27T03:59:02.697Z,87.74
2017-09-27T04:00:02.718Z,87.83
2017-09-27T04:01:02.738Z,88.78
2017-09-27T04:02:02.759Z,89.31
2017-09-27T04:03:02.774Z,89.50
2017-09-27T04:04:02.794Z,89.64
2017-09-27T04:05:02.813Z,88.98
2017-09-27T04:06:02.829Z,88.50
2017-09-27T04:07:02.848Z,87.93
2017-09-27T04:08:02.868Z,88.50
2017-09-27T04:09:02.888Z,88.26
2017-09-27T04:10:02.904Z,87.93
2017-09-27T04:11:02.928Z,87.74
2017-09-27T04:12:02.941Z,87.93
2017-09-27T04:13:02.960Z,87.83
2017-09-27T04:14:02.982Z,87.87
2017-09-27T04:15:03.002Z,87.59
2017-09-27T04:16:03.017Z,88.02
2017-09-27T04:17:03.036Z,88.17
2017-09-27T04:18:03.068Z,89.03
2017-09-27T04:19:03.073Z,88.74
2017-09-27T04:20:03.094Z,89.50
2017-09-27T04:21:03.110Z,88.78
2017-09-27T04:22:03.136Z,87.74
2017-09-27T04:23:03.146Z,87.16
2017-09-27T04:24:03.165Z,86.88
2017-09-27T04:25:03.182Z,86.49
2017-09-27T04:26:03.203Z,86.49
2017-09-27T04:27:03.223Z,87.45
2017-09-27T04:28:03.241Z,88.02
2017-09-27T04:29:03.261Z,88.07
2017-09-27T04:30:03.280Z,89.03
2017-09-27T04:31:03.295Z,88.74
2017-09-27T04:32:03.316Z,88.31
2017-09-27T04:33:03.334Z,88.40
2017-09-27T04:34:03.351Z,88.69
2017-09-27T04:35:03.371Z,88.21
2017-09-27T04:36:03.388Z,87.74
2017-09-27T04:37:03.412Z,87.83
2017-09-27T04:38:03.429Z,87.35
2017-09-27T04:39:03.444Z,87.54
2017-09-27T04:40:03.462Z,86.88
2017-09-27T04:41:03.482Z,85.73
2017-09-27T04:42:03.501Z,85.49
2017-09-27T04:43:03.520Z,85.11
2017-09-27T04:44:03.545Z,84.72
2017-09-27T04:45:03.557Z,85.01
2017-09-27T04:46:03.574Z,85.45
2017-09-27T04:47:03.594Z,85.54
2017-09-27T04:48:03.613Z,85.64
2017-09-27T04:49:03.631Z,86.69
2017-09-27T04:50:03.648Z,86.59
2017-09-27T04:51:03.667Z,86.69
2017-09-27T04:52:03.687Z,86.69
2017-09-27T04:53:03.705Z,87.83
2017-09-27T04:54:03.731Z,87.79
2017-09-27T04:55:03.742Z,88.07
2017-09-27T04:56:03.760Z,88.36
2017-09-27T04:57:03.782Z,88.26
2017-09-27T04:58:03.798Z,89.31
2017-09-27T04:59:03.812Z,89.89
2017-09-27T05:00:03.832Z,90.36
2017-09-27T05:01:03.854Z,89.60
2017-09-27T05:02:03.873Z,88.84
2017-09-27T05:03:03.888Z,88.55
2017-09-27T05:04:03.909Z,88.12
2017-09-27T05:05:03.939Z,88.02
2017-09-27T05:06:03.947Z,89.03
2017-09-27T05:07:03.966Z,89.03
2017-09-27T05:08:03.982Z,89.79
2017-09-27T05:09:04.005Z,90.45
2017-09-27T05:10:04.019Z,89.50
2017-09-27T05:11:04.041Z,89.50
2017-09-27T05:12:04.055Z,89.40
2017-09-27T05:13:04.079Z,89.12
2017-09-27T05:14:04.096Z,88.55
2017-09-27T05:15:04.114Z,88.02
2017-09-27T05:16:04.129Z,87.45
2017-09-27T05:17:04.155Z,87.35
2017-09-27T05:18:04.175Z,88.36
2017-09-27T05:19:04.183Z,88.78
2017-09-27T05:20:04.206Z,88.55
2017-09-27T05:21:04.221Z,88.74
2017-09-27T05:22:04.240Z,88.74
2017-09-27T05:23:04.259Z,88.74
2017-09-27T05:24:04.276Z,88.84
2017-09-27T05:25:04.298Z,89.22
2017-09-27T05:26:04.315Z,88.74
2017-09-27T05:27:04.335Z,89.12
2017-09-27T05:28:04.352Z,88.64
2017-09-27T05:29:04.369Z,88.59
2017-09-27T05:30:04.389Z,88.69
2017-09-27T05:31:04.408Z,88.21
2017-09-27T05:32:04.430Z,87.74
2017-09-27T05:33:04.446Z,87.64
2017-09-27T05:34:04.464Z,87.54
2017-09-27T05:35:04.480Z,87.45
2017-09-27T05:36:04.499Z,87.74
2017-09-27T05:37:04.519Z,88.31
2017-09-27T05:38:04.536Z,88.31
2017-09-27T05:39:04.556Z,88.26
2017-09-27T05:40:04.575Z,88.59
2017-09-27T05:41:04.590Z,87.74
2017-09-27T05:42:04.617Z,88.36
2017-09-27T05:43:04.635Z,88.45
2017-09-27T05:44:04.652Z,88.36
2017-09-27T05:45:04.667Z,88.59
2017-09-27T05:46:04.685Z,88.40
2017-09-27T05:47:04.705Z,88.02
2017-09-27T05:48:04.725Z,87.45
2017-09-27T05:49:04.741Z,86.98
2017-09-27T05:50:04.761Z,86.30
2017-09-27T05:51:04.777Z,86.49
2017-09-27T05:52:04.794Z,85.87
2017-09-27T05:53:04.815Z,86.69
2017-09-27T05:54:04.834Z,86.88
2017-09-27T05:55:04.851Z,86.78
2017-09-27T05:56:04.871Z,86.98
2017-09-27T05:57:04.890Z,86.49
2017-09-27T05:58:04.910Z,87.35
2017-09-27T05:59:04.930Z,87.54
2017-09-27T06:00:04.944Z,88.31
2017-09-27T06:01:04.963Z,88.88
2017-09-27T06:02:04.981Z,88.40
2017-09-27T06:03:05.000Z,88.88
2017-09-27T06:04:05.019Z,88.31
2017-09-27T06:05:05.040Z,88.50
2017-09-27T06:06:05.058Z,88.88
2017-09-27T06:07:05.076Z,87.93
2017-09-27T06:08:05.096Z,87.30
2017-09-27T06:09:05.114Z,86.73
2017-09-27T06:10:05.138Z,85.82
2017-09-27T06:11:05.153Z,85.72
2017-09-27T06:12:05.179Z,85.87
2017-09-27T06:13:05.193Z,86.44
2017-09-27T06:14:05.208Z,85.91
2017-09-27T06:15:05.227Z,85.44
2017-09-27T06:16:05.253Z,85.25
2017-09-27T06:17:05.268Z,85.25
2017-09-27T06:18:05.284Z,86.44
2017-09-27T06:19:05.315Z,87.21
2017-09-27T06:20:05.342Z,87.78
2017-09-27T06:21:05.350Z,87.35
2017-09-27T06:22:05.359Z,86.34
2017-09-27T06:23:05.380Z,85.67
2017-09-27T06:24:05.397Z,84.52
2017-09-27T06:25:05.418Z,84.09
2017-09-27T06:26:05.439Z,83.70
2017-09-27T06:27:05.456Z,84.72
2017-09-27T06:28:05.474Z,85.25
2017-09-27T06:29:05.495Z,86.05
2017-09-27T06:30:05.519Z,85.91
2017-09-27T06:31:05.533Z,85.48
2017-09-27T06:32:05.553Z,84.19
2017-09-27T06:33:05.570Z,83.46
2017-09-27T06:34:05.589Z,82.56
2017-09-27T06:35:05.610Z,83.33
2017-09-27T06:36:05.628Z,82.79
2017-09-27T06:37:05.650Z,82.31
2017-09-27T06:38:05.667Z,82.28
2017-09-27T06:39:05.689Z,82.31
2017-09-27T06:40:05.708Z,82.70
2017-09-27T06:41:05.728Z,82.17
2017-09-27T06:42:05.748Z,80.92
2017-09-27T06:43:05.767Z,80.44
2017-09-27T06:44:05.789Z,80.38
2017-09-27T06:45:05.811Z,78.95
2017-09-27T06:46:05.829Z,78.76
2017-09-27T06:47:05.846Z,78.47
2017-09-27T06:48:05.874Z,78.19
2017-09-27T06:49:05.888Z,77.84
2017-09-27T06:50:05.909Z,77.75
2017-09-27T06:51:05.928Z,77.46
2017-09-27T06:52:05.951Z,77.55
2017-09-27T06:53:05.969Z,77.46
2017-09-27T06:54:05.992Z,77.08
2017-09-27T06:55:06.012Z,77.51
2017-09-27T06:56:06.032Z,77.80
2017-09-27T06:57:06.049Z,79.20
2017-09-27T06:58:06.076Z,80.54
2017-09-27T06:59:06.091Z,81.36
2017-09-27T07:00:06.112Z,81.45
2017-09-27T07:01:06.134Z,81.45
2017-09-27T07:02:06.153Z,81.45
2017-09-27T07:03:06.177Z,81.21
2017-09-27T07:04:06.192Z,80.63
2017-09-27T07:05:06.220Z,79.68
2017-09-27T07:06:06.236Z,80.35
2017-09-27T07:07:06.252Z,79.62
2017-09-27T07:08:06.274Z,79.81
2017-09-27T07:09:06.295Z,79.20
2017-09-27T07:10:06.316Z,79.24
2017-09-27T07:11:06.334Z,79.43
2017-09-27T07:12:06.356Z,80.00
2017-09-27T07:13:06.376Z,79.68
2017-09-27T07:14:06.395Z,80.88
2017-09-27T07:15:06.446Z,82.41
2017-09-27T07:16:06.438Z,82.41
2017-09-27T07:17:06.456Z,81.49
2017-09-27T07:18:06.479Z,81.40
2017-09-27T07:19:06.509Z,81.11
2017-09-27T07:20:06.518Z,80.63
2017-09-27T07:21:06.537Z,80.92
2017-09-27T07:22:06.562Z,80.87
2017-09-27T07:23:06.585Z,80.67
2017-09-27T07:24:06.600Z,80.87
2017-09-27T07:25:06.620Z,81.68
2017-09-27T07:26:06.640Z,82.70
2017-09-27T07:27:06.660Z,83.65
2017-09-27T07:28:06.681Z,84.66
2017-09-27T07:29:06.703Z,84.89
2017-09-27T07:30:06.722Z,83.75
2017-09-27T07:31:06.739Z,82.74
2017-09-27T07:32:06.762Z,82.07
2017-09-27T07:33:06.781Z,81.30
2017-09-27T07:34:06.803Z,82.03
2017-09-27T07:35:06.822Z,83.37
2017-09-27T07:36:06.841Z,83.46
2017-09-27T07:37:06.861Z,83.84
2017-09-27T07:38:06.882Z,83.65
2017-09-27T07:39:06.901Z,83.75
2017-09-27T07:40:06.921Z,83.22
2017-09-27T07:41:06.946Z,83.65
2017-09-27T07:42:06.961Z,83.08
2017-09-27T07:43:06.983Z,83.12
2017-09-27T07:44:07.000Z,82.26
2017-09-27T07:45:07.022Z,82.17
2017-09-27T07:46:07.042Z,81.63
2017-09-27T07:47:07.066Z,81.78
2017-09-27T07:48:07.086Z,83.46
2017-09-27T07:49:07.101Z,83.98
2017-09-27T07:50:07.123Z,82.74
2017-09-27T07:51:07.142Z,82.45
2017-09-27T07:52:07.161Z,82.45
2017-09-27T07:53:07.183Z,83.89
2017-09-27T07:54:07.204Z,84.52
2017-09-27T07:55:07.224Z,84.08
2017-09-27T07:56:07.245Z,82.87
2017-09-27T07:57:07.263Z,82.01
2017-09-27T07:58:07.282Z,82.20
2017-09-27T07:59:07.304Z,82.35
2017-09-27T08:00:07.323Z,83.22
2017-09-27T08:01:07.346Z,82.20
2017-09-27T08:02:07.363Z,82.59
2017-09-27T08:03:07.382Z,81.67
2017-09-27T08:04:07.405Z,81.29
2017-09-27T08:05:07.424Z,81.29
2017-09-27T08:06:07.445Z,81.63
2017-09-27T08:07:07.463Z,81.63
2017-09-27T08:08:07.486Z,82.01
2017-09-27T08:09:07.503Z,82.11
2017-09-27T08:10:07.525Z,81.63
2017-09-27T08:11:07.545Z,82.78
2017-09-27T08:12:07.565Z,82.30
2017-09-27T08:13:07.591Z,82.20
2017-09-27T08:14:07.607Z,82.15
2017-09-27T08:15:07.632Z,81.57
2017-09-27T08:16:07.650Z,80.81
2017-09-27T08:17:07.668Z,81.67
2017-09-27T08:18:07.687Z,82.78
2017-09-27T08:19:07.708Z,82.78
2017-09-27T08:20:07.726Z,82.40
2017-09-27T08:21:07.748Z,82.11
2017-09-27T08:22:07.770Z,82.97
2017-09-27T08:23:07.788Z,82.97
2017-09-27T08:24:07.810Z,83.06
2017-09-27T08:25:07.830Z,83.36
2017-09-27T08:26:07.850Z,83.93
2017-09-27T08:27:07.869Z,83.83
2017-09-27T08:28:07.895Z,82.87
2017-09-27T08:29:07.910Z,82.30
2017-09-27T08:30:07.932Z,82.97
2017-09-27T08:31:07.952Z,82.82
2017-09-27T08:32:07.971Z,82.24
2017-09-27T08:33:07.992Z,82.53
2017-09-27T08:34:08.009Z,82.63
2017-09-27T08:35:08.029Z,82.73
2017-09-27T08:36:08.050Z,83.45
2017-09-27T08:37:08.073Z,82.97
2017-09-27T08:38:08.091Z,83.06
2017-09-27T08:39:08.126Z,84.41
2017-09-27T08:40:08.133Z,84.50
2017-09-27T08:41:08.157Z,84.22
2017-09-27T08:42:08.172Z,84.50
2017-09-27T08:43:08.191Z,84.31
2017-09-27T08:44:08.217Z,84.06
2017-09-27T08:45:08.236Z,83.39
2017-09-27T08:46:08.259Z,83.78
2017-09-27T08:47:08.276Z,83.26
2017-09-27T08:48:08.294Z,83.30
2017-09-27T08:49:08.316Z,82.19
2017-09-27T08:50:08.337Z,81.90
2017-09-27T08:51:08.355Z,82.82
2017-09-27T08:52:08.378Z,82.82
2017-09-27T08:53:08.394Z,82.63
2017-09-27T08:54:08.421Z,83.05
2017-09-27T08:55:08.438Z,83.30
2017-09-27T08:56:08.456Z,83.59
2017-09-27T08:57:08.479Z,83.68
2017-09-27T08:58:08.498Z,83.30
2017-09-27T08:59:08.519Z,83.20
2017-09-27T09:00:08.539Z,83.68
2017-09-27T09:01:08.558Z,83.59
2017-09-27T09:02:08.583Z,83.63
2017-09-27T09:03:08.601Z,83.78
2017-09-27T09:04:08.624Z,83.68
2017-09-27T09:05:08.643Z,83.63
2017-09-27T09:06:08.661Z,82.67
2017-09-27T09:07:08.681Z,82.19
2017-09-27T09:08:08.706Z,81.56
2017-09-27T09:09:08.756Z,80.79
2017-09-27T09:10:08.744Z,80.79
2017-09-27T09:11:08.763Z,80.16
2017-09-27T09:12:08.794Z,79.97
2017-09-27T09:13:08.803Z,78.82
2017-09-27T09:14:08.826Z,78.25
2017-09-27T09:15:08.847Z,77.95
2017-09-27T09:16:08.865Z,78.15
2017-09-27T09:17:08.887Z,77.90
2017-09-27T09:18:08.909Z,76.75
2017-09-27T09:19:08.928Z,76.84
2017-09-27T09:20:08.946Z,76.65
2017-09-27T09:21:08.973Z,76.56
2017-09-27T09:22:08.992Z,76.40
2017-09-27T09:23:09.012Z,76.07
2017-09-27T09:24:09.037Z,76.65
2017-09-27T09:25:09.053Z,77.80
2017-09-27T09:26:09.075Z,77.23
2017-09-27T09:27:09.094Z,76.94
2017-09-27T09:28:09.121Z,77.23
2017-09-27T09:29:09.144Z,76.40
2017-09-27T09:30:09.159Z,76.21
2017-09-27T09:31:09.180Z,75.92
2017-09-27T09:32:09.201Z,76.40
2017-09-27T09:33:09.224Z,75.96
2017-09-27T09:34:09.245Z,75.00
2017-09-27T09:35:09.266Z,75.00
2017-09-27T09:36:09.292Z,75.20
2017-09-27T09:37:09.311Z,75.20
2017-09-27T09:38:09.328Z,74.62
2017-09-27T09:39:09.348Z,75.00
2017-09-27T09:40:09.372Z,74.71
2017-09-27T09:41:09.395Z,74.04
2017-09-27T09:42:09.418Z,74.87
2017-09-27T09:43:09.435Z,75.35
2017-09-27T09:44:09.460Z,75.73
2017-09-27T09:45:09.477Z,74.62
2017-09-27T09:46:09.498Z,74.23
2017-09-27T09:47:09.520Z,74.23
2017-09-27T09:48:09.542Z,73.56
2017-09-27T09:49:09.562Z,73.94
2017-09-27T09:50:09.588Z,74.23
2017-09-27T09:51:09.605Z,74.58
2017-09-27T09:52:09.628Z,75.06
2017-09-27T09:53:09.648Z,75.92
2017-09-27T09:54:09.672Z,74.62
2017-09-27T09:55:09.692Z,73.56
2017-09-27T09:56:09.716Z,73.85
2017-09-27T09:57:09.736Z,74.04
2017-09-27T09:58:09.763Z,74.13
2017-09-27T09:59:09.777Z,74.81
2017-09-27T10:00:09.800Z,74.71
2017-09-27T10:01:09.824Z,75.45
2017-09-27T10:02:09.845Z,75.57
2017-09-27T10:03:09.866Z,75.38
2017-09-27T10:04:09.887Z,74.94
2017-09-27T10:05:09.910Z,74.90
2017-09-27T10:06:09.931Z,74.17
2017-09-27T10:07:09.951Z,73.98
2017-09-27T10:08:09.976Z,73.11
2017-09-27T10:09:09.996Z,73.02
2017-09-27T10:10:10.019Z,73.60
2017-09-27T10:11:10.041Z,73.98
2017-09-27T10:12:10.061Z,73.73
2017-09-27T10:13:10.094Z,72.77
2017-09-27T10:14:10.107Z,72.19
2017-09-27T10:15:10.130Z,71.52
2017-09-27T10:16:10.165Z,71.39
2017-09-27T10:17:10.170Z,71.71
2017-09-27T10:18:10.195Z,72.48
2017-09-27T10:19:10.218Z,72.86
2017-09-27T10:20:10.246Z,72.58
2017-09-27T10:21:10.263Z,72.77
2017-09-27T10:22:10.281Z,72.00
2017-09-27T10:23:10.302Z,72.19
2017-09-27T10:24:10.336Z,71.61
2017-09-27T10:25:10.349Z,72.48
2017-09-27T10:26:10.368Z,71.77
2017-09-27T10:27:10.390Z,72.96
2017-09-27T10:28:10.413Z,72.19
2017-09-27T10:29:10.445Z,71.96
2017-09-27T10:30:10.459Z,72.58
2017-09-27T10:31:10.476Z,71.91
2017-09-27T10:32:10.504Z,71.77
2017-09-27T10:33:10.521Z,73.21
2017-09-27T10:34:10.545Z,72.64
2017-09-27T10:35:10.571Z,73.31
2017-09-27T10:36:10.592Z,72.00
2017-09-27T10:37:10.623Z,71.33
2017-09-27T10:38:10.633Z,71.96
2017-09-27T10:39:10.655Z,72.92
2017-09-27T10:40:10.677Z,73.41
2017-09-27T10:41:10.698Z,74.37
2017-09-27T10:42:10.722Z,74.17
2017-09-27T10:43:10.742Z,71.75
2017-09-27T10:44:10.773Z,70.11
2017-09-27T10:45:10.784Z,71.81
2017-09-27T10:46:10.810Z,72.96
2017-09-27T10:47:10.830Z,72.00
2017-09-27T10:48:10.852Z,72.92
2017-09-27T10:49:10.877Z,73.60
2017-09-27T10:50:10.897Z,72.16
2017-09-27T10:51:10.919Z,72.64
2017-09-27T10:52:10.946Z,72.54
2017-09-27T10:53:10.965Z,73.08
2017-09-27T10:54:10.986Z,73.08
2017-09-27T10:55:11.005Z,73.02
2017-09-27T10:56:11.030Z,73.21
2017-09-27T10:57:11.054Z,74.62
2017-09-27T10:58:11.076Z,74.13
2017-09-27T10:59:11.096Z,73.31
2017-09-27T11:00:11.118Z,74.43
2017-09-27T11:01:11.143Z,75.67
2017-09-27T11:02:11.164Z,74.81
2017-09-27T11:03:11.182Z,75.45
2017-09-27T11:04:11.203Z,75.25
2017-09-27T11:05:11.232Z,76.50
2017-09-27T11:06:11.249Z,74.71
2017-09-27T11:07:11.279Z,74.13
2017-09-27T11:08:11.295Z,74.71
2017-09-27T11:09:11.318Z,75.06
2017-09-27T11:10:11.343Z,76.12
2017-09-27T11:11:11.356Z,76.40
2017-09-27T11:12:11.380Z,76.79
2017-09-27T11:13:11.404Z,75.57
2017-09-27T11:14:11.422Z,75.13
2017-09-27T11:15:11.451Z,73.11
2017-09-27T11:16:11.471Z,73.50
2017-09-27T11:17:11.488Z,72.86
2017-09-27T11:18:11.508Z,72.09
2017-09-27T11:19:11.534Z,71.46
2017-09-27T11:20:11.552Z,71.96
2017-09-27T11:21:11.574Z,73.21
2017-09-27T11:22:11.596Z,73.41
2017-09-27T11:23:11.617Z,72.86
2017-09-27T11:24:11.641Z,72.58
2017-09-27T11:25:11.671Z,73.21
2017-09-27T11:26:11.684Z,73.98
2017-09-27T11:27:11.704Z,73.60
2017-09-27T11:28:11.725Z,73.98
2017-09-27T11:29:11.748Z,73.50
2017-09-27T11:30:11.771Z,73.79
2017-09-27T11:31:11.793Z,72.67
2017-09-27T11:32:11.815Z,71.46
2017-09-27T11:33:11.838Z,70.01
2017-09-27T11:34:11.862Z,69.67
2017-09-27T11:35:11.884Z,68.90
2017-09-27T11:36:11.912Z,68.84
2017-09-27T11:37:11.928Z,68.06
2017-09-27T11:38:11.951Z,68.16
2017-09-27T11:39:11.977Z,67.61
2017-09-27T11:40:11.993Z,67.49
2017-09-27T11:41:12.016Z,68.35
2017-09-27T11:42:12.041Z,69.76
2017-09-27T11:43:12.065Z,69.34
2017-09-27T11:44:12.083Z,69.85
2017-09-27T11:45:12.108Z,70.11
2017-09-27T11:46:12.129Z,69.57
2017-09-27T11:47:12.151Z,68.32
2017-09-27T11:48:12.175Z,68.64
2017-09-27T11:49:12.197Z,68.54
2017-09-27T11:50:12.220Z,67.87
2017-09-27T11:51:12.244Z,68.26
2017-09-27T11:52:12.267Z,67.97
2017-09-27T11:53:12.289Z,68.29
2017-09-27T11:54:12.310Z,67.68
2017-09-27T11:55:12.332Z,68.22
2017-09-27T11:56:12.356Z,67.87
2017-09-27T11:57:12.385Z,67.49
2017-09-27T11:58:12.405Z,67.19
2017-09-27T11:59:12.426Z,66.42
2017-09-27T12:00:12.448Z,67.52
2017-09-27T12:01:12.479Z,67.33
2017-09-27T12:02:12.489Z,66.49
2017-09-27T12:03:12.513Z,66.17
2017-09-27T12:04:12.536Z,67.19
2017-09-27T12:05:12.559Z,67.68
2017-09-27T12:06:12.580Z,67.39
2017-09-27T12:07:12.603Z,68.22
2017-09-27T12:08:12.626Z,67.29
2017-09-27T12:09:12.651Z,67.39
2017-09-27T12:10:12.681Z,67.29
2017-09-27T12:11:12.696Z,66.75
2017-09-27T12:12:12.719Z,66.36
2017-09-27T12:13:12.753Z,67.13
2017-09-27T12:14:12.765Z,66.46
2017-09-27T12:15:12.785Z,66.46
2017-09-27T12:16:12.811Z,68.06
2017-09-27T12:17:12.832Z,68.35
2017-09-27T12:18:12.855Z,67.61
2017-09-27T12:19:12.877Z,67.03
2017-09-27T12:20:12.899Z,68.06
2017-09-27T12:21:12.922Z,68.51
2017-09-27T12:22:12.945Z,68.99
2017-09-27T12:23:12.967Z,68.22
2017-09-27T12:24:12.991Z,68.35
2017-09-27T12:25:13.013Z,68.44
2017-09-27T12:26:13.037Z,68.44
2017-09-27T12:27:13.056Z,69.12
2017-09-27T12:28:13.088Z,68.26
2017-09-27T12:29:13.106Z,68.19
2017-09-27T12:30:13.127Z,67.97
2017-09-27T12:31:13.148Z,68.74
2017-09-27T12:32:13.171Z,67.90
2017-09-27T12:33:13.197Z,68.26
2017-09-27T12:34:13.216Z,68.19
2017-09-27T12:35:13.240Z,67.26
2017-09-27T12:36:13.261Z,65.37
2017-09-27T12:37:13.283Z,64.21
2017-09-27T12:38:13.308Z,65.14
2017-09-27T12:39:13.331Z,65.56
2017-09-27T12:40:13.351Z,64.50
2017-09-27T12:41:13.376Z,63.44
2017-09-27T12:42:13.405Z,63.09
2017-09-27T12:43:13.426Z,63.09
2017-09-27T12:44:13.442Z,63.73
2017-09-27T12:45:13.469Z,64.11
2017-09-27T12:46:13.490Z,66.42
2017-09-27T12:47:13.517Z,68.16
2017-09-27T12:48:13.538Z,66.85
2017-09-27T12:49:13.560Z,67.33
2017-09-27T12:50:13.580Z,67.61
2017-09-27T12:51:13.605Z,67.97
2017-09-27T12:52:13.632Z,67.90
2017-09-27T12:53:13.648Z,66.97